Time;durP1;ratioP1;P1;durP2;ratioP2;P2;SDS_P1;SDS_P2;PMS_P1;PMS_P2;Temp;Humidity;BMP_temperature;BMP_pressure;BME280_temperature;BME280_humidity;BME280_pressure;Samples;Min_cycle;Max_cycle;Signal;HPM_P1;HPM_P2
2023/02/02 00:01:56;;;;;;;;;;;7.90;99.90;;;;;;8349213;28;19990;-75
2023/02/02 00:05:57;;;;;;;;;;;8.00;99.90;;;;;;8358121;28;19932;-75
2023/02/02 00:09:59;;;;;;;;;;;8.00;99.90;;;;;;8357549;28;19935;-75
2023/02/02 00:14:00;;;;;;;;;;;8.00;99.90;;;;;;8358893;28;19986;-75
2023/02/02 00:18:02;;;;;;;;;;;8.00;99.90;;;;;;8352900;28;20330;-75
2023/02/02 00:22:04;;;;;;;;;;;7.90;99.90;;;;;;8354394;28;19979;-75
2023/02/02 00:26:06;;;;;;;;;;;7.80;99.90;;;;;;8357101;28;19969;-75
2023/02/02 00:30:08;;;;;;;;;;;7.80;99.90;;;;;;8355961;28;19935;-75
2023/02/02 00:34:10;;;;;;;;;;;7.80;99.90;;;;;;8356180;28;19928;-75
2023/02/02 00:38:12;;;;;;;;;;;7.70;99.90;;;;;;8350065;28;19939;-75
2023/02/02 00:42:13;;;;;;;;;;;7.70;99.90;;;;;;8351634;28;19960;-75
2023/02/02 00:46:17;;;;;;;;;;;7.60;99.90;;;;;;8347736;28;19971;-75
2023/02/02 00:50:19;;;;;;;;;;;7.60;99.90;;;;;;8341129;28;19932;-75
2023/02/02 00:54:21;;;;;;;;;;;7.60;99.90;;;;;;8383172;28;19925;-75
2023/02/02 00:58:22;;;;;;;;;;;7.70;99.90;;;;;;8387881;28;19940;-75
2023/02/02 01:02:24;;;;;;;;;;;7.60;99.90;;;;;;8371864;28;19963;-75
2023/02/02 01:06:26;;;;;;;;;;;7.60;99.90;;;;;;8389925;28;19994;-74
2023/02/02 01:10:27;;;;;;;;;;;7.60;99.90;;;;;;8384964;28;19928;-75
2023/02/02 01:14:29;;;;;;;;;;;7.60;99.90;;;;;;8360254;28;20003;-75
2023/02/02 01:18:31;;;;;;;;;;;7.50;99.90;;;;;;8382140;28;20011;-75
2023/02/02 01:22:33;;;;;;;;;;;7.40;99.90;;;;;;8394625;28;20391;-75
2023/02/02 01:26:35;;;;;;;;;;;7.30;99.90;;;;;;8365797;28;19999;-75
2023/02/02 01:30:36;;;;;;;;;;;7.30;99.90;;;;;;8395378;28;19975;-74
2023/02/02 01:34:40;;;;;;;;;;;7.30;99.90;;;;;;8386540;28;19933;-74
2023/02/02 01:38:42;;;;;;;;;;;7.30;99.90;;;;;;8386217;28;19929;-75
2023/02/02 01:42:43;;;;;;;;;;;7.20;99.90;;;;;;8396834;28;19928;-75
2023/02/02 01:46:45;;;;;;;;;;;7.20;99.90;;;;;;8366735;28;20111;-75
2023/02/02 01:50:48;;;;;;;;;;;7.20;99.90;;;;;;8393940;28;19955;-74
2023/02/02 01:54:51;;;;;;;;;;;7.20;99.90;;;;;;8392705;28;19959;-75
2023/02/02 01:58:53;;;;;;;;;;;7.20;99.90;;;;;;8389972;28;19925;-74
2023/02/02 02:03:01;;;;;;;;;;;7.30;99.90;;;;;;8369262;28;19933;-74
2023/02/02 02:07:04;;;;;;;;;;;7.30;99.90;;;;;;8389687;28;19959;-75
2023/02/02 02:11:05;;;;;;;;;;;7.30;99.90;;;;;;8383450;28;20407;-74
2023/02/02 02:28:46;;;;;;;;;;;7.40;99.90;;;;;;8386444;28;19999;-75
2023/02/02 02:32:57;;;;;;;;;;;7.40;99.90;;;;;;8372497;28;19935;-75
2023/02/02 02:37:06;;;;;;;;;;;7.40;99.90;;;;;;8384151;28;19939;-75
2023/02/02 02:41:10;;;;;;;;;;;7.50;99.90;;;;;;8383989;28;20415;-75
2023/02/02 02:45:12;;;;;;;;;;;7.50;99.90;;;;;;8386454;28;19936;-75
2023/02/02 02:49:14;;;;;;;;;;;7.60;99.90;;;;;;8370367;28;19928;-75
2023/02/02 02:53:18;;;;;;;;;;;7.60;99.90;;;;;;8383310;28;19939;-75
2023/02/02 02:57:23;;;;;;;;;;;7.60;99.90;;;;;;8400551;28;19935;-75
2023/02/02 03:01:30;;;;;;;;;;;7.60;99.90;;;;;;8385341;28;19932;-75
2023/02/02 03:05:48;;;;;;;;;;;7.70;99.90;;;;;;8390234;28;20299;-75
2023/02/02 03:09:50;;;;;;;;;;;7.70;99.90;;;;;;8385460;28;19931;-75
2023/02/02 03:13:53;;;;;;;;;;;7.70;99.90;;;;;;8393728;28;20391;-75
2023/02/02 03:17:55;;;;;;;;;;;7.70;99.90;;;;;;8366880;28;20491;-75
2023/02/02 03:21:56;;;;;;;;;;;7.70;99.90;;;;;;8393032;28;19929;-75
2023/02/02 03:25:58;;;;;;;;;;;7.70;99.90;;;;;;8389960;28;19971;-75
2023/02/02 03:30:00;;;;;;;;;;;7.80;99.90;;;;;;8377000;28;19925;-75
2023/02/02 03:34:02;;;;;;;;;;;7.80;99.90;;;;;;8390220;28;19928;-75
2023/02/02 03:38:04;;;;;;;;;;;7.80;99.90;;;;;;8396874;28;19924;-76
2023/02/02 03:42:05;;;;;;;;;;;7.90;99.90;;;;;;8391636;28;19928;-75
2023/02/02 03:46:07;;;;;;;;;;;7.90;99.90;;;;;;8369458;28;19924;-75
2023/02/02 03:50:09;;;;;;;;;;;7.90;99.90;;;;;;8394726;28;19934;-75
2023/02/02 03:54:11;;;;;;;;;;;8.00;99.90;;;;;;8370489;28;19977;-75
2023/02/02 03:58:12;;;;;;;;;;;8.00;99.90;;;;;;8377450;28;19928;-75
2023/02/02 04:02:14;;;;;;;;;;;8.10;99.90;;;;;;8389009;28;19924;-75
2023/02/02 04:06:18;;;;;;;;;;;8.10;99.90;;;;;;8374842;28;19924;-75
2023/02/02 04:10:20;;;;;;;;;;;8.10;99.90;;;;;;8396027;28;20015;-75
2023/02/02 04:14:21;;;;;;;;;;;8.10;99.90;;;;;;8380381;28;20381;-75
2023/02/02 04:18:23;;;;;;;;;;;8.20;99.90;;;;;;8389259;28;19928;-75
2023/02/02 04:22:25;;;;;;;;;;;8.10;99.90;;;;;;8394298;28;20392;-75
2023/02/02 04:26:27;;;;;;;;;;;8.10;99.90;;;;;;8391415;28;19993;-75
2023/02/02 04:30:29;;;;;;;;;;;8.20;99.90;;;;;;8376186;28;19928;-75
2023/02/02 04:34:30;;;;;;;;;;;8.20;99.90;;;;;;8385197;28;20391;-75
2023/02/02 04:38:32;;;;;;;;;;;8.20;99.90;;;;;;8389666;28;19924;-76
2023/02/02 04:42:34;;;;;;;;;;;8.20;99.90;;;;;;8386539;28;19951;-76
2023/02/02 04:46:35;;;;;;;;;;;8.20;99.90;;;;;;8377478;28;22366;-75
2023/02/02 04:50:37;;;;;;;;;;;8.20;99.90;;;;;;8403365;28;19924;-75
2023/02/02 04:54:38;;;;;;;;;;;8.30;99.90;;;;;;8395532;28;19925;-75
2023/02/02 04:58:40;;;;;;;;;;;8.30;99.90;;;;;;8394070;28;19924;-75
2023/02/02 05:02:42;;;;;;;;;;;8.30;99.90;;;;;;8376388;28;19947;-75
2023/02/02 05:06:44;;;;;;;;;;;8.30;99.90;;;;;;8400236;28;20277;-76
2023/02/02 05:10:45;;;;;;;;;;;8.30;99.90;;;;;;8371098;28;19931;-75
2023/02/02 05:14:47;;;;;;;;;;;8.30;99.90;;;;;;8381006;28;20299;-75
2023/02/02 05:18:50;;;;;;;;;;;8.40;99.90;;;;;;8394156;28;19942;-75
2023/02/02 05:22:51;;;;;;;;;;;8.40;99.90;;;;;;8372588;28;19963;-76
2023/02/02 05:26:57;;;;;;;;;;;8.40;99.90;;;;;;8388773;28;19947;-76
2023/02/02 05:30:59;;;;;;;;;;;8.40;99.90;;;;;;8371160;28;19963;-75
2023/02/02 05:35:00;;;;;;;;;;;8.40;99.90;;;;;;8386902;28;19931;-75
2023/02/02 05:39:04;;;;;;;;;;;8.40;99.90;;;;;;8394111;28;20213;-76
2023/02/02 05:43:06;;;;;;;;;;;8.40;99.90;;;;;;8387588;28;20267;-75
2023/02/02 05:47:08;;;;;;;;;;;8.40;99.90;;;;;;8379060;28;19924;-75
2023/02/02 05:51:14;;;;;;;;;;;8.30;99.90;;;;;;8389581;28;20019;-75
2023/02/02 05:55:17;;;;;;;;;;;8.40;99.90;;;;;;8387860;28;19980;-75
2023/02/02 05:59:18;;;;;;;;;;;8.30;99.90;;;;;;8391562;28;20004;-75
2023/02/02 06:03:20;;;;;;;;;;;8.40;99.90;;;;;;8389963;28;19925;-75
2023/02/02 06:07:22;;;;;;;;;;;8.30;99.90;;;;;;8363138;28;20027;-75
2023/02/02 06:11:23;;;;;;;;;;;8.20;99.90;;;;;;8383304;28;20386;-75
2023/02/02 06:15:26;;;;;;;;;;;8.20;99.90;;;;;;8384764;28;19950;-75
2023/02/02 06:19:28;;;;;;;;;;;8.20;99.90;;;;;;8374595;28;19929;-75
2023/02/02 06:23:29;;;;;;;;;;;8.10;99.90;;;;;;8390569;28;20052;-76
2023/02/02 06:27:31;;;;;;;;;;;8.10;99.90;;;;;;8397539;28;19980;-75
2023/02/02 06:31:33;;;;;;;;;;;8.10;99.90;;;;;;8376829;28;21062;-75
2023/02/02 06:35:35;;;;;;;;;;;8.10;99.90;;;;;;8377853;28;19924;-75
2023/02/02 06:39:36;;;;;;;;;;;8.00;99.90;;;;;;8389180;28;19967;-75
2023/02/02 06:43:38;;;;;;;;;;;8.00;99.90;;;;;;8368691;28;20846;-75
2023/02/02 06:47:40;;;;;;;;;;;8.00;99.90;;;;;;8380823;28;19925;-75
2023/02/02 06:51:42;;;;;;;;;;;8.00;99.90;;;;;;8382285;28;20391;-75
2023/02/02 06:55:50;;;;;;;;;;;7.90;99.90;;;;;;8394013;28;19925;-75
2023/02/02 06:59:52;;;;;;;;;;;7.90;99.90;;;;;;8373788;28;19959;-75
2023/02/02 07:03:54;;;;;;;;;;;7.90;99.90;;;;;;8389080;28;19980;-75
2023/02/02 07:07:55;;;;;;;;;;;7.90;99.90;;;;;;8386899;28;20086;-75
2023/02/02 07:11:57;;;;;;;;;;;7.90;99.90;;;;;;8392793;28;19974;-75
2023/02/02 07:16:01;;;;;;;;;;;7.90;99.90;;;;;;8386376;28;19981;-75
2023/02/02 07:20:03;;;;;;;;;;;7.90;99.90;;;;;;8398382;28;19925;-75
2023/02/02 07:24:05;;;;;;;;;;;7.90;99.90;;;;;;8382109;28;20019;-75
2023/02/02 07:28:06;;;;;;;;;;;7.80;99.90;;;;;;8381464;28;19924;-75
2023/02/02 07:32:08;;;;;;;;;;;7.80;99.90;;;;;;8397866;28;19960;-75
2023/02/02 07:36:10;;;;;;;;;;;7.80;99.90;;;;;;8403269;28;19946;-75
2023/02/02 07:40:12;;;;;;;;;;;7.80;99.90;;;;;;8397707;28;19971;-75
2023/02/02 07:44:14;;;;;;;;;;;7.80;99.90;;;;;;8390723;28;19944;-75
2023/02/02 07:48:16;;;;;;;;;;;7.80;99.90;;;;;;8373718;28;19947;-75
2023/02/02 07:52:18;;;;;;;;;;;7.80;99.90;;;;;;8380831;28;20296;-75
2023/02/02 07:56:23;;;;;;;;;;;7.90;99.90;;;;;;8394972;28;20037;-75
2023/02/02 08:00:25;;;;;;;;;;;7.90;99.90;;;;;;8372903;28;19932;-75
2023/02/02 08:04:27;;;;;;;;;;;7.90;99.90;;;;;;8389998;28;20386;-75
2023/02/02 08:08:29;;;;;;;;;;;7.90;99.90;;;;;;8403246;28;19933;-75
2023/02/02 08:12:30;;;;;;;;;;;7.90;99.90;;;;;;8381789;28;20263;-75
2023/02/02 08:16:33;;;;;;;;;;;8.00;99.90;;;;;;8397732;28;19928;-76
2023/02/02 08:20:35;;;;;;;;;;;8.00;99.90;;;;;;8387423;28;19978;-75
2023/02/02 08:24:39;;;;;;;;;;;8.10;99.90;;;;;;8389999;28;19971;-75
2023/02/02 08:28:41;;;;;;;;;;;8.10;99.90;;;;;;8376208;28;19929;-75
2023/02/02 08:32:43;;;;;;;;;;;8.10;99.90;;;;;;8401196;28;19932;-75
2023/02/02 08:36:45;;;;;;;;;;;8.20;99.90;;;;;;8393488;28;19929;-75
2023/02/02 08:40:46;;;;;;;;;;;8.20;99.90;;;;;;8395705;28;19931;-75
2023/02/02 08:44:48;;;;;;;;;;;8.20;99.90;;;;;;8381016;28;19963;-75
2023/02/02 08:49:10;;;;;;;;;;;8.30;99.90;;;;;;8372654;28;20326;-75
2023/02/02 08:53:12;;;;;;;;;;;8.30;99.90;;;;;;8385406;28;19925;-75
2023/02/02 08:57:14;;;;;;;;;;;8.40;99.90;;;;;;8390859;28;19964;-75
2023/02/02 09:01:20;;;;;;;;;;;8.40;99.90;;;;;;8397168;28;19974;-75
2023/02/02 09:05:22;;;;;;;;;;;8.50;99.90;;;;;;8399959;28;19924;-75
2023/02/02 09:09:24;;;;;;;;;;;8.50;99.90;;;;;;8400481;28;19928;-75
2023/02/02 09:13:26;;;;;;;;;;;8.50;99.90;;;;;;8389139;28;19967;-75
2023/02/02 09:17:28;;;;;;;;;;;8.60;99.90;;;;;;8388589;28;19924;-76
2023/02/02 09:21:30;;;;;;;;;;;8.70;99.90;;;;;;8393801;28;19971;-75
2023/02/02 09:25:31;;;;;;;;;;;8.70;99.90;;;;;;8388368;28;20327;-76
2023/02/02 09:29:33;;;;;;;;;;;8.80;99.90;;;;;;8399665;28;19963;-75
2023/02/02 09:33:35;;;;;;;;;;;8.90;99.90;;;;;;8393917;28;20399;-76
2023/02/02 09:37:37;;;;;;;;;;;9.00;99.90;;;;;;8377330;28;19924;-75
2023/02/02 09:41:39;;;;;;;;;;;9.10;99.90;;;;;;8391585;28;19924;-76
2023/02/02 09:45:46;;;;;;;;;;;9.00;99.90;;;;;;8360713;28;19924;-76
2023/02/02 09:49:57;;;;;;;;;;;9.00;99.90;;;;;;8378736;28;19924;-75
2023/02/02 09:54:03;;;;;;;;;;;8.90;99.90;;;;;;8392999;28;20024;-76
2023/02/02 09:58:17;;;;;;;;;;;8.90;99.90;;;;;;8399683;28;20372;-76
2023/02/02 10:02:24;;;;;;;;;;;8.80;99.90;;;;;;8388672;28;19928;-76
2023/02/02 10:06:36;;;;;;;;;;;8.80;99.90;;;;;;8386241;28;19994;-76
2023/02/02 10:10:40;;;;;;;;;;;8.80;99.90;;;;;;8371528;28;20011;-75
2023/02/02 10:14:47;;;;;;;;;;;8.80;99.90;;;;;;8374017;28;19931;-75
2023/02/02 10:19:03;;;;;;;;;;;8.80;99.90;;;;;;8389886;28;19928;-76
2023/02/02 10:23:10;;;;;;;;;;;8.90;99.90;;;;;;8387324;28;19935;-76
2023/02/02 10:27:16;;;;;;;;;;;8.90;99.90;;;;;;8374848;28;19947;-75
2023/02/02 10:31:32;;;;;;;;;;;8.90;99.90;;;;;;8391542;28;20388;-76
2023/02/02 10:35:39;;;;;;;;;;;9.00;99.90;;;;;;8391196;28;20375;-75
2023/02/02 10:39:56;;;;;;;;;;;9.00;99.90;;;;;;8372335;28;19924;-75
2023/02/02 10:44:04;;;;;;;;;;;9.10;99.90;;;;;;8399988;28;19925;-75
2023/02/02 10:48:12;;;;;;;;;;;9.00;99.90;;;;;;8387074;28;20265;-75
2023/02/02 10:52:15;;;;;;;;;;;9.00;99.90;;;;;;8395945;28;19924;-75
2023/02/02 10:56:20;;;;;;;;;;;9.10;99.90;;;;;;8386269;28;19925;-75
2023/02/02 11:00:24;;;;;;;;;;;9.10;99.90;;;;;;8389280;28;19924;-75
2023/02/02 11:08:55;;;;;;;;;;;9.10;99.90;;;;;;8389680;28;19924;-75
2023/02/02 11:12:59;;;;;;;;;;;9.10;99.90;;;;;;8381301;28;19924;-76
2023/02/02 11:17:04;;;;;;;;;;;9.10;99.90;;;;;;8400752;28;20339;-76
2023/02/02 11:21:19;;;;;;;;;;;9.20;99.90;;;;;;8397112;28;19929;-76
2023/02/02 11:25:29;;;;;;;;;;;9.30;99.90;;;;;;8393235;28;19932;-75
2023/02/02 11:29:37;;;;;;;;;;;9.30;99.90;;;;;;8379083;28;19931;-76
2023/02/02 11:33:38;;;;;;;;;;;9.40;99.90;;;;;;8392825;28;20485;-76
2023/02/02 11:37:52;;;;;;;;;;;9.30;99.90;;;;;;8379011;28;19933;-76
2023/02/02 11:41:59;;;;;;;;;;;9.40;99.90;;;;;;8375453;28;20459;-75
2023/02/02 11:46:02;;;;;;;;;;;9.40;99.90;;;;;;8394092;28;19928;-75
2023/02/02 11:50:04;;;;;;;;;;;9.30;99.90;;;;;;8383414;28;19928;-75
2023/02/02 11:54:14;;;;;;;;;;;9.40;99.90;;;;;;8390350;28;20026;-76
2023/02/02 11:58:26;;;;;;;;;;;9.30;99.90;;;;;;8389767;28;19928;-75
2023/02/02 12:02:29;;;;;;;;;;;9.40;99.90;;;;;;8389675;28;19931;-75
2023/02/02 12:06:31;;;;;;;;;;;9.40;99.90;;;;;;8368819;28;20343;-76
2023/02/02 12:10:52;;;;;;;;;;;9.40;99.90;;;;;;8379142;28;20308;-75
2023/02/02 12:15:02;;;;;;;;;;;9.40;99.90;;;;;;8386552;28;19924;-75
2023/02/02 12:19:14;;;;;;;;;;;9.40;99.90;;;;;;8394785;28;19931;-76
2023/02/02 12:23:15;;;;;;;;;;;9.40;99.90;;;;;;8369640;28;20390;-75
2023/02/02 12:27:31;;;;;;;;;;;9.40;99.90;;;;;;8389197;28;19956;-75
2023/02/02 12:31:38;;;;;;;;;;;9.40;99.90;;;;;;8382284;28;19928;-75
2023/02/02 12:35:43;;;;;;;;;;;9.40;99.90;;;;;;8391859;28;19932;-76
2023/02/02 12:40:03;;;;;;;;;;;9.30;99.90;;;;;;8387720;28;19931;-75
2023/02/02 12:44:11;;;;;;;;;;;9.20;99.90;;;;;;8400091;28;20352;-75
2023/02/02 12:48:21;;;;;;;;;;;9.10;99.90;;;;;;8390957;28;19932;-75
2023/02/02 12:52:41;;;;;;;;;;;9.00;99.90;;;;;;8396976;28;19936;-75
2023/02/02 12:56:43;;;;;;;;;;;8.90;99.90;;;;;;8377176;28;19991;-76
2023/02/02 13:00:55;;;;;;;;;;;8.80;99.90;;;;;;8373100;28;20007;-75
2023/02/02 13:05:09;;;;;;;;;;;8.80;99.90;;;;;;8373849;28;20364;-76
2023/02/02 13:09:20;;;;;;;;;;;8.70;99.90;;;;;;8397833;28;20383;-75
2023/02/02 13:13:23;;;;;;;;;;;8.70;99.90;;;;;;8376674;28;20073;-76
2023/02/02 13:17:32;;;;;;;;;;;8.70;99.90;;;;;;8386159;28;20387;-75
2023/02/02 13:21:35;;;;;;;;;;;8.70;99.90;;;;;;8401594;28;20468;-76
2023/02/02 13:25:41;;;;;;;;;;;8.70;99.90;;;;;;8378215;28;19989;-76
2023/02/02 13:29:47;;;;;;;;;;;8.80;99.90;;;;;;8392314;28;19996;-76
2023/02/02 13:33:53;;;;;;;;;;;8.70;99.90;;;;;;8377859;28;19929;-76
2023/02/02 13:38:01;;;;;;;;;;;8.70;99.90;;;;;;8362302;28;20928;-75
2023/02/02 13:42:15;;;;;;;;;;;8.70;99.90;;;;;;8397770;28;19924;-75
2023/02/02 13:46:26;;;;;;;;;;;8.70;99.90;;;;;;8368948;28;19931;-75
2023/02/02 13:50:29;;;;;;;;;;;8.60;99.90;;;;;;8392204;28;19925;-75
2023/02/02 13:54:48;;;;;;;;;;;8.60;99.90;;;;;;8402112;28;19981;-75
2023/02/02 13:58:55;;;;;;;;;;;8.60;99.90;;;;;;8391641;28;19935;-75
2023/02/02 14:03:04;;;;;;;;;;;8.50;99.90;;;;;;8401193;28;19924;-75
2023/02/02 14:07:06;;;;;;;;;;;8.50;99.90;;;;;;8371672;28;20376;-75
2023/02/02 14:11:14;;;;;;;;;;;8.50;99.90;;;;;;8374233;28;19986;-75
2023/02/02 14:15:16;;;;;;;;;;;8.50;99.90;;;;;;8371022;28;20374;-76
2023/02/02 14:19:41;;;;;;;;;;;8.50;99.90;;;;;;8363988;28;19928;-75
2023/02/02 14:23:50;;;;;;;;;;;8.50;99.90;;;;;;8378707;28;19970;-75
2023/02/02 14:27:54;;;;;;;;;;;8.50;99.90;;;;;;8355752;28;19946;-75
2023/02/02 14:32:00;;;;;;;;;;;8.40;99.90;;;;;;8354855;28;20275;-75
2023/02/02 14:36:02;;;;;;;;;;;8.40;99.90;;;;;;8365316;28;20296;-76
2023/02/02 14:40:07;;;;;;;;;;;8.40;99.90;;;;;;8356248;28;20371;-76
2023/02/02 14:44:09;;;;;;;;;;;8.40;99.90;;;;;;8372466;28;20046;-76
2023/02/02 14:48:15;;;;;;;;;;;8.40;99.90;;;;;;8370041;28;20091;-76
2023/02/02 14:52:21;;;;;;;;;;;8.40;99.90;;;;;;8364879;28;19928;-75
2023/02/02 14:56:39;;;;;;;;;;;8.40;99.90;;;;;;8348421;28;19924;-76
2023/02/02 15:00:40;;;;;;;;;;;8.30;99.90;;;;;;8359203;28;19924;-76
2023/02/02 15:04:46;;;;;;;;;;;8.30;99.90;;;;;;8363927;28;19929;-76
2023/02/02 15:09:08;;;;;;;;;;;8.30;99.90;;;;;;8369599;28;19974;-75
2023/02/02 15:13:13;;;;;;;;;;;8.30;99.90;;;;;;8348218;28;19933;-75
2023/02/02 15:17:24;;;;;;;;;;;8.30;99.90;;;;;;8374098;28;20331;-76
2023/02/02 15:21:26;;;;;;;;;;;8.30;99.90;;;;;;8366599;28;20303;-75
2023/02/02 15:25:34;;;;;;;;;;;8.30;99.90;;;;;;8375259;28;20372;-75
2023/02/02 15:29:41;;;;;;;;;;;8.30;99.90;;;;;;8371929;28;19928;-75
2023/02/02 15:33:44;;;;;;;;;;;8.30;99.90;;;;;;8348857;28;19991;-75
2023/02/02 15:37:48;;;;;;;;;;;8.30;99.90;;;;;;8373175;28;19986;-75
2023/02/02 15:42:51;;;;;;;;;;;8.30;99.90;;;;;;8373144;28;20032;-75
2023/02/02 15:46:14;;;;;;;;;;;8.30;99.90;;;;;;8369477;28;19935;-76
2023/02/02 15:50:18;;;;;;;;;;;8.30;99.90;;;;;;8360539;28;20400;-75
2023/02/02 15:54:24;;;;;;;;;;;8.30;99.90;;;;;;8375265;28;19960;-76
2023/02/02 15:58:30;;;;;;;;;;;8.30;99.90;;;;;;8372961;28;19929;-76
2023/02/02 16:02:40;;;;;;;;;;;8.30;99.90;;;;;;8349954;28;19932;-76
2023/02/02 16:06:42;;;;;;;;;;;8.30;99.90;;;;;;8370941;28;19963;-77
2023/02/02 16:10:44;;;;;;;;;;;8.30;99.90;;;;;;8372151;28;20372;-75
2023/02/02 16:14:49;;;;;;;;;;;8.30;99.90;;;;;;8351844;28;19933;-75
2023/02/02 16:19:04;;;;;;;;;;;8.30;99.90;;;;;;8361268;28;19973;-75
2023/02/02 16:23:11;;;;;;;;;;;8.30;99.90;;;;;;8366478;28;20359;-75
2023/02/02 16:27:15;;;;;;;;;;;8.30;99.90;;;;;;8364042;28;19929;-76
2023/02/02 16:31:17;;;;;;;;;;;8.20;99.90;;;;;;8362044;28;20330;-75
2023/02/02 16:35:35;;;;;;;;;;;8.20;99.90;;;;;;8366058;28;19978;-75
2023/02/02 16:39:37;;;;;;;;;;;8.20;99.90;;;;;;8372900;28;19928;-75
2023/02/02 16:43:40;;;;;;;;;;;8.20;99.90;;;;;;8371403;28;20053;-75
2023/02/02 16:47:41;;;;;;;;;;;8.20;99.90;;;;;;8364807;28;19929;-75
2023/02/02 16:51:45;;;;;;;;;;;8.20;99.90;;;;;;8367909;28;19951;-75
2023/02/02 16:55:47;;;;;;;;;;;8.20;99.90;;;;;;8365838;28;19932;-75
2023/02/02 16:59:53;;;;;;;;;;;8.20;99.90;;;;;;8358241;28;19999;-75
2023/02/02 17:03:54;;;;;;;;;;;8.20;99.90;;;;;;8383845;28;19930;-75
2023/02/02 17:07:59;;;;;;;;;;;8.20;99.90;;;;;;8363273;28;20380;-75
2023/02/02 17:12:04;;;;;;;;;;;8.20;99.90;;;;;;8365381;28;19933;-75
2023/02/02 17:16:09;;;;;;;;;;;8.20;99.90;;;;;;8344189;28;20051;-75
2023/02/02 17:20:11;;;;;;;;;;;8.20;99.90;;;;;;8365911;28;20319;-75
2023/02/02 17:24:13;;;;;;;;;;;8.20;99.90;;;;;;8367466;28;19935;-76
2023/02/02 17:28:16;;;;;;;;;;;8.20;99.90;;;;;;8349273;28;20331;-75
2023/02/02 17:32:17;;;;;;;;;;;8.20;99.90;;;;;;8366611;28;19932;-75
2023/02/02 17:36:19;;;;;;;;;;;8.20;99.90;;;;;;8356689;28;19924;-75
2023/02/02 17:40:21;;;;;;;;;;;8.30;99.90;;;;;;8371685;28;19929;-75
2023/02/02 17:44:23;;;;;;;;;;;8.30;99.90;;;;;;8369933;28;20380;-75
2023/02/02 17:48:25;;;;;;;;;;;8.30;99.90;;;;;;8363559;28;19928;-75
2023/02/02 17:52:27;;;;;;;;;;;8.40;99.90;;;;;;8367745;28;19929;-75
2023/02/02 17:56:28;;;;;;;;;;;8.40;99.90;;;;;;8346122;28;19928;-75
2023/02/02 18:00:30;;;;;;;;;;;8.40;99.90;;;;;;8368659;28;19928;-75
2023/02/02 18:04:32;;;;;;;;;;;8.50;99.90;;;;;;8361457;28;19933;-74
2023/02/02 18:08:34;;;;;;;;;;;8.50;99.90;;;;;;8363354;28;19933;-75
2023/02/02 18:12:35;;;;;;;;;;;8.40;99.90;;;;;;8362671;28;19932;-75
2023/02/02 18:16:37;;;;;;;;;;;8.40;99.90;;;;;;8350523;28;19934;-75
2023/02/02 18:20:42;;;;;;;;;;;8.40;99.90;;;;;;8353126;28;19939;-75
2023/02/02 18:24:44;;;;;;;;;;;8.40;99.90;;;;;;8363541;28;19924;-75
2023/02/02 18:28:48;;;;;;;;;;;8.40;99.90;;;;;;8346537;28;20364;-75
2023/02/02 18:32:50;;;;;;;;;;;8.30;99.90;;;;;;8346606;28;19924;-75
2023/02/02 18:36:52;;;;;;;;;;;8.30;99.90;;;;;;8364403;28;19971;-75
2023/02/02 18:40:55;;;;;;;;;;;8.30;99.90;;;;;;8365256;28;19986;-75
2023/02/02 18:44:57;;;;;;;;;;;8.30;99.90;;;;;;8376689;28;19932;-75
2023/02/02 18:48:58;;;;;;;;;;;8.30;99.90;;;;;;8361096;28;20322;-75
2023/02/02 18:53:00;;;;;;;;;;;8.30;99.90;;;;;;8364964;28;19981;-74
2023/02/02 18:57:02;;;;;;;;;;;8.30;99.90;;;;;;8363919;28;19925;-75
2023/02/02 19:01:14;;;;;;;;;;;8.30;99.90;;;;;;8364584;28;19972;-75
2023/02/02 19:10:20;;;;;;;;;;;8.30;99.90;;;;;;8362132;28;19927;-75
2023/02/02 19:14:25;;;;;;;;;;;8.30;99.90;;;;;;8376795;28;20339;-75
2023/02/02 19:18:30;;;;;;;;;;;8.30;99.90;;;;;;8364907;28;19925;-75
2023/02/02 19:22:32;;;;;;;;;;;8.20;99.90;;;;;;8364410;28;20278;-75
2023/02/02 19:26:36;;;;;;;;;;;8.20;99.90;;;;;;8345144;28;19932;-75
2023/02/02 19:30:37;;;;;;;;;;;8.20;99.90;;;;;;8359551;28;19929;-75
2023/02/02 19:34:40;;;;;;;;;;;8.10;99.90;;;;;;8364430;28;20008;-74
2023/02/02 19:38:41;;;;;;;;;;;8.10;99.90;;;;;;8363646;28;19931;-75
2023/02/02 19:42:44;;;;;;;;;;;8.10;99.90;;;;;;8348909;28;19936;-75
2023/02/02 19:46:47;;;;;;;;;;;8.10;99.90;;;;;;8355782;28;20026;-75
2023/02/02 19:50:49;;;;;;;;;;;8.00;99.90;;;;;;8364137;28;20372;-76
2023/02/02 19:54:51;;;;;;;;;;;8.00;99.90;;;;;;8361457;28;19928;-75
2023/02/02 19:58:53;;;;;;;;;;;8.00;99.90;;;;;;8372332;28;19925;-75
2023/02/02 20:02:58;;;;;;;;;;;8.00;99.90;;;;;;8374581;28;19939;-75
2023/02/02 20:06:59;;;;;;;;;;;8.00;99.90;;;;;;8352338;28;19940;-75
2023/02/02 20:11:22;;;;;;;;;;;8.00;99.90;;;;;;8362115;28;19925;-75
2023/02/02 20:15:27;;;;;;;;;;;8.10;99.90;;;;;;8359528;28;19964;-75
2023/02/02 20:19:34;;;;;;;;;;;8.10;99.90;;;;;;8371263;28;19949;-75
2023/02/02 20:23:43;;;;;;;;;;;8.10;99.90;;;;;;8350556;28;20308;-75
2023/02/02 20:27:45;;;;;;;;;;;8.20;99.90;;;;;;8381343;28;19925;-75
2023/02/02 20:31:47;;;;;;;;;;;8.30;99.90;;;;;;8348080;28;19928;-75
2023/02/02 20:35:49;;;;;;;;;;;8.30;99.90;;;;;;8359998;28;20011;-75
2023/02/02 20:39:53;;;;;;;;;;;8.40;99.90;;;;;;8369556;28;19928;-76
2023/02/02 20:43:55;;;;;;;;;;;8.40;99.90;;;;;;8368906;28;20014;-75
2023/02/02 20:47:56;;;;;;;;;;;8.40;99.90;;;;;;8350722;28;19982;-75
2023/02/02 20:51:59;;;;;;;;;;;8.40;99.90;;;;;;8374303;28;19955;-75
2023/02/02 20:56:01;;;;;;;;;;;8.40;99.90;;;;;;8351037;28;19977;-75
2023/02/02 21:00:04;;;;;;;;;;;8.40;99.90;;;;;;8372489;28;20023;-75
2023/02/02 21:04:06;;;;;;;;;;;8.50;99.90;;;;;;8367282;28;19931;-75
2023/02/02 21:08:08;;;;;;;;;;;8.50;99.90;;;;;;8367135;28;19940;-75
2023/02/02 21:12:10;;;;;;;;;;;8.50;99.90;;;;;;8365411;28;19946;-75
2023/02/02 21:16:11;;;;;;;;;;;8.60;99.90;;;;;;8367546;28;19976;-75
2023/02/02 21:20:13;;;;;;;;;;;8.60;99.90;;;;;;8365446;28;19934;-75
2023/02/02 21:24:16;;;;;;;;;;;8.60;99.90;;;;;;8366728;28;19985;-75
2023/02/02 21:28:17;;;;;;;;;;;8.70;99.90;;;;;;8366335;28;19928;-75
2023/02/02 21:32:19;;;;;;;;;;;8.70;99.90;;;;;;8368662;28;19939;-75
2023/02/02 21:36:29;;;;;;;;;;;8.70;99.90;;;;;;8361769;28;19936;-75
2023/02/02 21:40:33;;;;;;;;;;;8.80;99.90;;;;;;8351971;28;19924;-75
2023/02/02 21:44:38;;;;;;;;;;;8.80;99.90;;;;;;8368905;28;19935;-75
2023/02/02 21:48:40;;;;;;;;;;;8.80;99.90;;;;;;8369250;28;19924;-75
2023/02/02 21:52:42;;;;;;;;;;;8.90;99.90;;;;;;8367847;28;19925;-75
2023/02/02 21:56:44;;;;;;;;;;;8.80;99.90;;;;;;8381759;28;20392;-75
2023/02/02 22:00:46;;;;;;;;;;;8.80;99.90;;;;;;8352906;28;19924;-75
2023/02/02 22:04:47;;;;;;;;;;;8.80;99.90;;;;;;8384824;28;19924;-75
2023/02/02 22:08:50;;;;;;;;;;;8.80;99.90;;;;;;8390119;28;19973;-75
2023/02/02 22:12:52;;;;;;;;;;;8.80;99.90;;;;;;8383390;28;19931;-75
2023/02/02 22:16:58;;;;;;;;;;;8.80;99.90;;;;;;8389892;28;19982;-75
2023/02/02 22:20:59;;;;;;;;;;;8.80;99.90;;;;;;8373341;28;19985;-75
2023/02/02 22:25:02;;;;;;;;;;;8.80;99.90;;;;;;8371523;28;19932;-75
2023/02/02 22:29:17;;;;;;;;;;;8.70;99.90;;;;;;8391654;28;19969;-75
2023/02/02 22:33:19;;;;;;;;;;;8.80;99.90;;;;;;8388773;28;19985;-75
2023/02/02 22:37:20;;;;;;;;;;;8.80;99.90;;;;;;8385354;28;20319;-75
2023/02/02 22:41:22;;;;;;;;;;;8.80;99.90;;;;;;8388793;28;19977;-75
2023/02/02 22:45:24;;;;;;;;;;;8.80;99.90;;;;;;8386398;28;19940;-75
2023/02/02 22:49:26;;;;;;;;;;;8.90;99.90;;;;;;8393383;28;19928;-75
2023/02/02 22:53:27;;;;;;;;;;;9.00;99.90;;;;;;8401842;28;19951;-74
2023/02/02 22:57:29;;;;;;;;;;;9.00;99.90;;;;;;8389391;28;20395;-75
2023/02/02 23:01:30;;;;;;;;;;;9.00;99.90;;;;;;8390279;28;19928;-75
2023/02/02 23:05:32;;;;;;;;;;;9.10;99.90;;;;;;8387792;28;19931;-75
2023/02/02 23:09:33;;;;;;;;;;;9.10;99.90;;;;;;8371727;28;20371;-75
2023/02/02 23:13:35;;;;;;;;;;;9.10;99.90;;;;;;8386775;28;20418;-75
2023/02/02 23:17:36;;;;;;;;;;;9.00;99.90;;;;;;8383312;28;19933;-75
2023/02/02 23:21:38;;;;;;;;;;;9.00;99.90;;;;;;8390505;28;19929;-75
2023/02/02 23:25:40;;;;;;;;;;;9.00;99.90;;;;;;8384951;28;19931;-75
2023/02/02 23:29:41;;;;;;;;;;;9.00;99.90;;;;;;8388215;28;20336;-75
2023/02/02 23:33:43;;;;;;;;;;;9.00;99.90;;;;;;8376345;28;20330;-75
2023/02/02 23:37:44;;;;;;;;;;;9.00;99.90;;;;;;8394986;28;19928;-75
2023/02/02 23:41:46;;;;;;;;;;;8.90;99.90;;;;;;8373841;28;19924;-75
2023/02/02 23:45:48;;;;;;;;;;;9.00;99.90;;;;;;8394903;28;20337;-75
2023/02/02 23:49:49;;;;;;;;;;;8.90;99.90;;;;;;8396543;28;19939;-75
2023/02/02 23:53:51;;;;;;;;;;;8.90;99.90;;;;;;8394765;28;19924;-74
2023/02/02 23:57:53;;;;;;;;;;;8.90;99.90;;;;;;8385446;28;19928;-75
